Time;durP1;ratioP1;P1;durP2;ratioP2;P2;SDS_P1;SDS_P2;PMS_P1;PMS_P2;Temp;Humidity;BMP_temperature;BMP_pressure;BME280_temperature;BME280_humidity;BME280_pressure;Samples;Min_cycle;Max_cycle;Signal;HPM_P1;HPM_P2
2022/01/22 00:01:28;;;;;;;2.60;2.40;;;3.00;99.90;;;;;;5034709;28;20222;-64
2022/01/22 00:03:54;;;;;;;3.03;2.50;;;3.00;99.90;;;;;;5035054;28;20597;-64
2022/01/22 00:06:19;;;;;;;5.10;2.40;;;3.00;99.90;;;;;;5033708;28;20181;-64
2022/01/22 00:08:45;;;;;;;3.30;2.60;;;3.10;99.90;;;;;;5034839;28;20166;-64
2022/01/22 00:11:11;;;;;;;3.37;2.70;;;3.00;99.90;;;;;;5035742;28;20172;-64
2022/01/22 00:16:20;;;;;;;3.07;2.33;;;3.00;99.90;;;;;;5034677;28;20589;-63
2022/01/22 00:18:46;;;;;;;2.73;2.17;;;3.10;99.90;;;;;;5034771;28;20200;-64
2022/01/22 00:21:12;;;;;;;3.67;2.77;;;3.10;99.90;;;;;;5034527;28;20212;-64
2022/01/22 00:23:40;;;;;;;2.73;2.40;;;2.90;99.90;;;;;;5034905;28;20169;-65
2022/01/22 00:26:05;;;;;;;3.27;2.43;;;3.00;99.90;;;;;;5034963;28;20157;-64
2022/01/22 00:28:31;;;;;;;2.30;2.10;;;3.00;99.90;;;;;;5034901;28;20210;-64
2022/01/22 00:30:57;;;;;;;3.43;2.50;;;3.00;99.90;;;;;;5034652;28;20169;-64
2022/01/22 00:33:22;;;;;;;2.53;2.33;;;3.00;99.90;;;;;;5034247;28;20545;-64
2022/01/22 00:35:48;;;;;;;3.03;2.60;;;3.00;99.90;;;;;;5033049;28;20240;-64
2022/01/22 00:38:15;;;;;;;2.37;2.17;;;3.00;99.90;;;;;;5032682;28;20235;-65
2022/01/22 00:40:41;;;;;;;2.43;1.60;;;3.00;99.90;;;;;;5034261;28;20204;-64
2022/01/22 00:43:06;;;;;;;2.50;2.30;;;3.00;99.90;;;;;;5034042;28;20203;-63
2022/01/22 00:45:32;;;;;;;2.30;2.10;;;3.00;99.90;;;;;;5034490;28;20196;-65
2022/01/22 00:47:58;;;;;;;2.60;2.10;;;3.00;99.90;;;;;;5032580;28;20539;-64
2022/01/22 00:50:25;;;;;;;2.30;2.10;;;3.00;99.90;;;;;;5034412;28;20164;-63
2022/01/22 00:52:51;;;;;;;2.93;2.00;;;3.10;99.90;;;;;;5034501;28;20219;-64
2022/01/22 00:55:18;;;;;;;4.77;2.10;;;3.00;99.90;;;;;;5033971;28;20165;-63
2022/01/22 00:57:44;;;;;;;2.30;2.10;;;3.10;99.90;;;;;;5033960;28;20671;-64
2022/01/22 01:00:13;;;;;;;2.13;1.90;;;3.00;99.90;;;;;;5033522;28;20276;-64
2022/01/22 01:02:40;;;;;;;3.20;2.40;;;3.00;99.90;;;;;;5033988;28;20513;-65
2022/01/22 01:05:08;;;;;;;2.53;2.07;;;3.10;99.90;;;;;;5033609;28;20164;-64
2022/01/22 01:07:34;;;;;;;2.27;2.07;;;3.10;99.90;;;;;;5032111;28;20310;-64
2022/01/22 01:09:59;;;;;;;2.13;1.83;;;3.10;99.90;;;;;;5033408;28;20161;-63
2022/01/22 01:12:26;;;;;;;2.80;2.03;;;3.10;99.90;;;;;;5033919;28;20173;-64
2022/01/22 01:15:09;;;;;;;2.07;1.87;;;3.20;99.90;;;;;;5033850;28;20256;-65
2022/01/22 01:17:58;;;;;;;2.50;1.50;;;3.20;99.90;;;;;;5033850;28;20288;-64
2022/01/22 01:34:09;;;;;;;2.03;1.80;;;3.60;99.90;;;;;;5033855;28;20163;-66
2022/01/22 01:36:35;;;;;;;1.63;1.23;;;3.40;99.90;;;;;;5031896;28;20314;-64
2022/01/22 01:39:04;;;;;;;2.93;1.40;;;3.40;99.90;;;;;;5058982;28;20190;-64
2022/01/22 01:41:39;;;;;;;2.10;1.70;;;3.50;99.90;;;;;;5052978;28;20238;-64
2022/01/22 01:44:05;;;;;;;1.87;1.73;;;3.50;99.90;;;;;;5053814;28;20176;-65
2022/01/22 01:46:33;;;;;;;1.77;1.67;;;3.50;99.90;;;;;;5053284;28;20556;-65
2022/01/22 01:48:59;;;;;;;2.73;1.90;;;3.50;99.90;;;;;;5034227;28;20202;-64
2022/01/22 01:51:29;;;;;;;1.63;1.20;;;3.60;99.90;;;;;;5031661;28;20391;-64
2022/01/22 01:54:04;;;;;;;1.70;1.57;;;3.60;99.90;;;;;;5028567;28;20184;-64
2022/01/22 01:59:16;;;;;;;2.10;1.90;;;3.60;99.90;;;;;;5033655;28;20506;-64
2022/01/22 02:01:43;;;;;;;2.17;1.97;;;3.60;99.90;;;;;;5033891;28;20198;-65
2022/01/22 02:04:11;;;;;;;2.20;1.90;;;3.70;99.90;;;;;;5032789;28;20539;-64
2022/01/22 02:06:37;;;;;;;2.17;1.63;;;3.60;99.90;;;;;;5036823;28;20181;-65
2022/01/22 02:09:07;;;;;;;2.40;1.80;;;3.60;99.90;;;;;;5041147;28;20264;-64
2022/01/22 02:11:33;;;;;;;1.90;1.57;;;3.60;99.90;;;;;;5045818;28;20613;-65
2022/01/22 02:24:53;;;;;;;2.10;1.90;;;3.80;99.90;;;;;;5032636;28;20184;-63
2022/01/22 02:27:19;;;;;;;2.07;1.87;;;3.80;99.90;;;;;;5043261;28;20275;-64
2022/01/22 02:29:46;;;;;;;2.40;2.10;;;3.80;99.90;;;;;;5056222;28;20158;-64
2022/01/22 02:34:58;;;;;;;1.80;1.70;;;3.80;99.90;;;;;;5056262;28;20180;-63
2022/01/22 02:37:30;;;;;;;2.63;2.10;;;3.80;99.90;;;;;;5055077;28;20227;-64
2022/01/22 02:40:05;;;;;;;2.50;2.10;;;3.80;99.90;;;;;;5056368;28;20236;-64
2022/01/22 02:42:34;;;;;;;1.87;1.67;;;3.90;99.90;;;;;;5044344;28;20197;-64
2022/01/22 02:45:00;;;;;;;1.60;1.50;;;3.90;99.90;;;;;;5036181;28;20158;-64
2022/01/22 02:47:26;;;;;;;2.30;2.10;;;3.90;99.90;;;;;;5034984;28;20687;-63
2022/01/22 02:49:52;;;;;;;1.60;1.47;;;3.90;99.90;;;;;;5035092;28;20236;-64
2022/01/22 02:52:17;;;;;;;2.23;1.77;;;4.00;99.90;;;;;;5036639;28;20220;-64
2022/01/22 02:54:44;;;;;;;1.93;1.70;;;4.00;99.90;;;;;;5035884;28;20157;-65
2022/01/22 02:57:11;;;;;;;1.60;1.43;;;4.00;99.90;;;;;;5036347;28;20163;-63
2022/01/22 02:59:37;;;;;;;2.00;1.50;;;4.10;99.90;;;;;;5036644;28;20248;-65
2022/01/22 03:02:04;;;;;;;1.97;1.77;;;4.10;99.90;;;;;;5032643;28;20245;-65
2022/01/22 03:04:30;;;;;;;1.97;1.77;;;4.10;99.90;;;;;;5045357;28;20185;-64
2022/01/22 03:06:56;;;;;;;1.40;1.30;;;4.10;99.90;;;;;;5036053;28;20171;-64
2022/01/22 03:09:28;;;;;;;2.80;2.00;;;4.10;99.90;;;;;;5036052;28;20247;-64
2022/01/22 03:15:27;;;;;;;1.60;1.50;;;4.10;99.90;;;;;;5035731;28;20189;-63
2022/01/22 03:27:45;;;;;;;2.17;1.90;;;4.20;99.90;;;;;;5036266;28;20670;-64
2022/01/22 03:30:11;;;;;;;1.80;1.50;;;4.20;99.90;;;;;;5035422;28;20171;-64
2022/01/22 03:32:43;;;;;;;2.10;1.40;;;4.30;99.90;;;;;;5035464;28;20622;-64
2022/01/22 03:35:26;;;;;;;1.80;1.37;;;4.30;99.90;;;;;;5036138;28;20190;-65
2022/01/22 03:37:54;;;;;;;1.40;1.30;;;4.30;99.90;;;;;;5035330;28;20264;-63
2022/01/22 03:40:23;;;;;;;1.63;1.53;;;4.40;99.90;;;;;;5035434;28;20193;-64
2022/01/22 03:42:50;;;;;;;1.40;1.17;;;4.30;99.90;;;;;;5030719;28;20168;-64
2022/01/22 03:45:17;;;;;;;1.30;1.10;;;4.30;99.90;;;;;;5035390;28;20231;-63
2022/01/22 03:47:43;;;;;;;1.23;1.10;;;4.40;99.90;;;;;;5035195;28;20249;-65
2022/01/22 03:50:11;;;;;;;1.60;1.30;;;4.30;99.90;;;;;;5034785;28;20565;-65
2022/01/22 03:52:37;;;;;;;1.37;1.23;;;4.40;99.90;;;;;;5035048;28;20174;-65
2022/01/22 03:55:05;;;;;;;1.37;1.27;;;4.40;99.90;;;;;;5035386;28;20162;-64
2022/01/22 03:57:31;;;;;;;2.43;1.73;;;4.50;99.90;;;;;;5048961;28;20187;-63
2022/01/22 03:59:56;;;;;;;1.60;1.50;;;4.40;99.90;;;;;;5055311;28;20280;-63
2022/01/22 04:05:07;;;;;;;1.70;1.57;;;4.50;99.90;;;;;;5054405;28;20522;-64
2022/01/22 04:10:09;;;;;;;2.10;1.30;;;4.40;99.90;;;;;;5054594;28;20165;-64
2022/01/22 04:12:52;;;;;;;1.30;1.20;;;4.40;99.90;;;;;;5047172;28;20191;-64
2022/01/22 04:15:21;;;;;;;1.77;1.50;;;4.60;99.90;;;;;;5035194;28;20172;-63
2022/01/22 04:26:12;;;;;;;0.90;0.90;;;4.50;99.90;;;;;;5026505;28;20193;-65
2022/01/22 04:28:38;;;;;;;1.13;1.03;;;4.40;99.90;;;;;;5034382;28;20169;-64
2022/01/22 04:31:03;;;;;;;0.97;0.90;;;4.40;99.90;;;;;;5035784;28;20192;-64
2022/01/22 04:33:29;;;;;;;1.57;1.30;;;4.30;99.90;;;;;;5039559;28;20196;-65
2022/01/22 04:35:55;;;;;;;1.20;1.10;;;4.30;99.90;;;;;;5034464;28;20599;-64
2022/01/22 04:38:20;;;;;;;1.33;1.23;;;4.40;99.90;;;;;;5034521;28;20176;-65
2022/01/22 04:40:46;;;;;;;1.80;1.17;;;4.40;99.90;;;;;;5034381;28;20700;-63
2022/01/22 04:43:12;;;;;;;0.90;0.90;;;4.40;99.90;;;;;;5066616;28;20181;-65
2022/01/22 04:45:50;;;;;;;2.93;1.47;;;4.40;99.90;;;;;;5034219;28;20285;-65
2022/01/22 04:48:39;;;;;;;2.03;1.27;;;4.40;99.90;;;;;;5066936;28;20179;-65
2022/01/22 04:56:33;;;;;;;1.20;1.10;;;4.40;99.90;;;;;;5032750;28;20181;-64
2022/01/22 04:58:59;;;;;;;1.20;1.10;;;4.30;99.90;;;;;;5033716;28;20167;-65
2022/01/22 05:01:24;;;;;;;1.40;1.30;;;4.30;99.90;;;;;;5033469;28;20220;-65
2022/01/22 05:03:50;;;;;;;6.23;1.13;;;4.40;99.90;;;;;;5033922;28;20161;-65
2022/01/22 05:06:15;;;;;;;1.43;1.27;;;4.30;99.90;;;;;;5033692;28;20169;-64
2022/01/22 05:08:41;;;;;;;1.83;1.30;;;4.20;99.90;;;;;;5034100;28;20636;-64
2022/01/22 05:11:08;;;;;;;1.07;1.00;;;4.20;99.90;;;;;;5033847;28;20171;-66
2022/01/22 05:13:34;;;;;;;1.40;1.30;;;4.20;99.90;;;;;;5066354;28;20201;-65
2022/01/22 05:15:59;;;;;;;2.53;1.70;;;4.20;99.90;;;;;;5034430;28;20594;-65
2022/01/22 05:18:25;;;;;;;2.13;1.47;;;4.20;99.90;;;;;;5034871;28;20165;-65
2022/01/22 05:20:59;;;;;;;1.00;0.90;;;4.20;99.90;;;;;;5034560;28;20343;-65
2022/01/22 05:23:26;;;;;;;1.23;1.13;;;4.30;99.90;;;;;;5034516;28;20268;-65
2022/01/22 05:26:01;;;;;;;1.17;1.07;;;4.20;99.90;;;;;;5035906;28;20164;-64
2022/01/22 05:29:00;;;;;;;2.23;1.57;;;4.20;99.90;;;;;;5035409;28;20165;-64
2022/01/22 05:31:37;;;;;;;1.20;1.10;;;4.20;99.90;;;;;;5038528;28;20182;-65
2022/01/22 05:37:03;;;;;;;1.70;1.47;;;4.10;99.90;;;;;;5039255;28;20226;-64
2022/01/22 05:39:30;;;;;;;4.43;1.67;;;4.10;99.90;;;;;;5037862;28;20197;-64
2022/01/22 05:41:58;;;;;;;1.70;1.60;;;4.10;99.90;;;;;;5037157;28;20201;-64
2022/01/22 05:44:24;;;;;;;2.03;1.57;;;4.10;99.90;;;;;;5037582;28;20170;-64
2022/01/22 05:46:51;;;;;;;1.67;1.50;;;4.10;99.90;;;;;;5036045;28;20174;-66
2022/01/22 05:49:20;;;;;;;1.60;1.50;;;4.10;99.90;;;;;;5036003;28;20163;-64
2022/01/22 05:51:47;;;;;;;1.57;1.47;;;4.10;99.90;;;;;;5037048;28;20608;-65
2022/01/22 05:54:43;;;;;;;2.23;1.33;;;4.10;99.90;;;;;;5036010;28;20199;-65
2022/01/22 05:59:45;;;;;;;2.13;1.60;;;4.10;99.90;;;;;;5055465;28;20263;-67
2022/01/22 06:02:13;;;;;;;1.83;1.50;;;4.00;99.90;;;;;;5054691;28;20245;-65
2022/01/22 06:04:40;;;;;;;2.63;2.00;;;4.00;99.90;;;;;;5054882;28;20166;-65
2022/01/22 06:07:07;;;;;;;3.60;2.17;;;4.00;99.90;;;;;;5054403;28;20557;-65
2022/01/22 06:09:34;;;;;;;2.80;1.90;;;3.90;99.90;;;;;;5058343;28;20164;-65
2022/01/22 06:14:32;;;;;;;3.37;2.03;;;3.80;99.90;;;;;;5061052;28;20504;-65
2022/01/22 06:16:58;;;;;;;2.97;2.13;;;3.80;99.90;;;;;;5062370;28;20167;-65
2022/01/22 06:19:24;;;;;;;4.23;2.13;;;3.80;99.90;;;;;;5061170;28;20197;-66
2022/01/22 06:21:51;;;;;;;4.40;2.77;;;3.80;99.90;;;;;;5059693;28;20246;-64
2022/01/22 06:24:18;;;;;;;4.30;3.03;;;3.70;99.90;;;;;;5056616;28;20201;-64
2022/01/22 06:26:43;;;;;;;7.17;3.50;;;3.70;99.90;;;;;;5056317;28;20172;-64
2022/01/22 06:29:09;;;;;;;5.03;3.13;;;3.70;99.90;;;;;;5056468;28;20158;-64
2022/01/22 06:31:35;;;;;;;3.47;2.40;;;3.70;99.90;;;;;;5056428;28;20171;-63
2022/01/22 06:34:01;;;;;;;3.13;2.40;;;3.70;99.90;;;;;;5056552;28;20168;-65
2022/01/22 06:36:27;;;;;;;3.40;1.83;;;3.70;99.90;;;;;;5056995;28;20537;-67
2022/01/22 06:38:58;;;;;;;2.67;2.17;;;3.70;99.90;;;;;;5056163;28;20179;-65
2022/01/22 06:44:08;;;;;;;3.93;1.90;;;3.70;99.90;;;;;;5038353;28;20255;-63
2022/01/22 06:46:34;;;;;;;2.90;2.13;;;3.70;99.90;;;;;;5044700;28;20197;-64
2022/01/22 06:48:59;;;;;;;3.23;2.27;;;3.70;99.90;;;;;;5035253;28;20674;-66
2022/01/22 06:51:27;;;;;;;3.80;2.20;;;3.70;99.90;;;;;;5034933;28;20192;-64
2022/01/22 06:53:53;;;;;;;2.93;2.37;;;3.70;99.90;;;;;;5036254;28;20168;-64
2022/01/22 06:56:21;;;;;;;3.07;2.37;;;3.70;99.90;;;;;;5044033;28;20180;-64
2022/01/22 06:58:47;;;;;;;3.67;2.30;;;3.70;99.90;;;;;;5055908;28;20160;-64
2022/01/22 07:01:14;;;;;;;6.20;2.00;;;3.70;99.90;;;;;;5055691;28;20282;-65
2022/01/22 07:03:39;;;;;;;3.67;2.30;;;3.80;99.90;;;;;;5055754;28;20165;-65
2022/01/22 07:06:05;;;;;;;4.10;2.97;;;3.70;99.90;;;;;;5055788;28;20164;-64
2022/01/22 07:08:31;;;;;;;2.70;2.20;;;3.70;99.90;;;;;;5051673;28;20283;-65
2022/01/22 07:10:56;;;;;;;3.77;2.20;;;3.80;99.90;;;;;;5055599;28;20176;-65
2022/01/22 07:13:22;;;;;;;2.60;1.70;;;3.80;99.90;;;;;;5055760;28;20543;-65
2022/01/22 07:15:47;;;;;;;3.97;2.17;;;3.80;99.90;;;;;;5056032;28;20179;-65
2022/01/22 07:18:14;;;;;;;4.13;2.50;;;3.80;99.90;;;;;;5056102;28;20606;-65
2022/01/22 07:20:41;;;;;;;4.23;2.50;;;3.80;99.90;;;;;;5053884;28;20531;-64
2022/01/22 07:23:19;;;;;;;3.07;2.30;;;3.70;99.90;;;;;;5044844;28;20220;-66
2022/01/22 07:25:45;;;;;;;5.97;2.27;;;3.80;99.90;;;;;;5035618;28;20156;-64
2022/01/22 07:28:11;;;;;;;3.23;2.00;;;3.80;99.90;;;;;;5035622;28;20165;-64
2022/01/22 07:30:38;;;;;;;3.67;2.43;;;3.70;99.90;;;;;;5034839;28;20343;-65
2022/01/22 07:33:04;;;;;;;5.20;2.63;;;3.80;99.90;;;;;;5035507;28;20172;-63
2022/01/22 07:35:33;;;;;;;6.67;3.03;;;3.70;99.90;;;;;;5029938;28;20189;-64
2022/01/22 07:38:00;;;;;;;2.70;2.30;;;3.80;99.90;;;;;;5035354;28;20157;-64
2022/01/22 07:40:26;;;;;;;3.70;2.63;;;3.70;99.90;;;;;;5035321;28;20658;-64
2022/01/22 07:42:52;;;;;;;3.40;2.50;;;3.70;99.90;;;;;;5035228;28;20173;-63
2022/01/22 07:45:18;;;;;;;4.70;3.20;;;3.70;99.90;;;;;;5067811;28;20195;-64
2022/01/22 07:47:43;;;;;;;3.83;2.50;;;3.60;99.90;;;;;;5055489;28;20164;-64
2022/01/22 07:50:09;;;;;;;2.43;1.93;;;3.70;99.90;;;;;;5054672;28;20580;-63
2022/01/22 07:52:35;;;;;;;3.23;2.30;;;3.50;99.90;;;;;;5055568;28;20166;-63
2022/01/22 07:55:01;;;;;;;3.50;2.70;;;3.50;99.90;;;;;;5055108;28;20164;-64
2022/01/22 07:57:28;;;;;;;2.90;2.20;;;3.60;99.90;;;;;;5055906;28;20171;-64
2022/01/22 07:59:53;;;;;;;3.67;2.37;;;3.50;99.90;;;;;;5036169;28;20189;-64
2022/01/22 08:02:19;;;;;;;6.37;2.80;;;3.60;99.90;;;;;;5042144;28;20588;-64
2022/01/22 08:04:44;;;;;;;5.50;2.60;;;3.60;99.90;;;;;;5060506;28;20190;-64
2022/01/22 08:07:11;;;;;;;4.60;2.50;;;3.60;99.90;;;;;;5055191;28;20157;-64
2022/01/22 08:09:36;;;;;;;4.30;2.30;;;3.50;99.90;;;;;;5054622;28;20176;-65
2022/01/22 08:12:02;;;;;;;4.10;2.60;;;3.50;99.90;;;;;;5034265;28;20189;-64
2022/01/22 08:14:28;;;;;;;4.33;2.80;;;3.60;99.90;;;;;;5035265;28;20282;-64
2022/01/22 08:16:53;;;;;;;3.77;2.73;;;3.70;99.90;;;;;;5029208;28;20196;-64
2022/01/22 08:19:19;;;;;;;4.77;2.90;;;3.80;99.90;;;;;;5034280;28;20488;-64
2022/01/22 08:21:46;;;;;;;4.53;2.80;;;3.80;99.90;;;;;;5034298;28;20201;-64
2022/01/22 08:24:14;;;;;;;3.47;2.60;;;3.70;99.90;;;;;;5039275;28;20184;-65
2022/01/22 08:26:46;;;;;;;4.87;3.30;;;3.80;99.90;;;;;;5053950;28;20154;-64
2022/01/22 08:29:12;;;;;;;4.07;2.67;;;3.80;99.90;;;;;;5053878;28;20575;-64
2022/01/22 08:31:50;;;;;;;3.43;2.37;;;3.80;99.90;;;;;;5053345;28;20164;-65
2022/01/22 08:37:00;;;;;;;10.77;3.40;;;4.00;99.90;;;;;;5053547;28;20243;-65
2022/01/22 08:39:26;;;;;;;4.60;3.20;;;4.00;99.90;;;;;;5053987;28;20165;-63
2022/01/22 08:41:52;;;;;;;4.07;2.80;;;4.00;99.90;;;;;;5053602;28;20564;-64
2022/01/22 08:44:18;;;;;;;4.73;3.00;;;4.00;99.90;;;;;;5053864;28;20169;-64
2022/01/22 08:46:44;;;;;;;4.57;3.20;;;4.10;99.90;;;;;;5053980;28;20504;-64
2022/01/22 08:49:09;;;;;;;4.00;2.73;;;4.10;99.90;;;;;;5058928;28;20250;-64
2022/01/22 08:51:37;;;;;;;4.40;3.13;;;4.10;99.90;;;;;;5056900;28;20175;-64
2022/01/22 08:54:04;;;;;;;6.83;3.57;;;4.10;99.90;;;;;;5053685;28;20168;-66
2022/01/22 08:56:30;;;;;;;5.20;3.47;;;4.20;99.90;;;;;;5053395;28;20172;-64
2022/01/22 08:58:56;;;;;;;3.03;2.40;;;4.20;99.90;;;;;;5043179;28;20231;-64
2022/01/22 09:01:23;;;;;;;4.77;3.17;;;4.20;99.90;;;;;;5033541;28;20215;-63
2022/01/22 09:03:49;;;;;;;5.57;2.77;;;4.20;99.90;;;;;;5026754;28;20628;-64
2022/01/22 09:06:17;;;;;;;5.03;2.73;;;4.30;99.90;;;;;;5033616;28;20157;-65
2022/01/22 09:08:45;;;;;;;4.50;2.70;;;4.20;99.90;;;;;;5033497;28;20165;-64
2022/01/22 09:11:11;;;;;;;3.97;2.90;;;4.20;99.90;;;;;;5033731;28;20158;-63
2022/01/22 09:13:37;;;;;;;3.40;2.20;;;4.20;99.90;;;;;;5033259;28;20168;-64
2022/01/22 09:16:04;;;;;;;4.13;2.63;;;4.10;99.90;;;;;;5033030;28;20247;-63
2022/01/22 09:18:30;;;;;;;2.80;1.90;;;4.20;99.90;;;;;;5034204;28;20173;-64
2022/01/22 09:21:02;;;;;;;3.67;2.00;;;4.10;99.90;;;;;;5033528;28;20221;-64
2022/01/22 09:23:29;;;;;;;3.40;2.23;;;4.10;99.90;;;;;;5033531;28;20190;-64
2022/01/22 09:25:55;;;;;;;3.77;2.87;;;4.20;99.90;;;;;;5028717;28;20624;-64
2022/01/22 09:28:21;;;;;;;7.57;2.73;;;4.20;99.90;;;;;;5033142;28;20217;-63
2022/01/22 09:30:47;;;;;;;5.37;3.00;;;4.20;99.90;;;;;;5033650;28;20165;-63
2022/01/22 09:33:14;;;;;;;4.43;2.70;;;4.10;99.90;;;;;;5028665;28;20616;-64
2022/01/22 09:35:39;;;;;;;2.90;2.50;;;4.20;99.90;;;;;;5032994;28;20224;-63
2022/01/22 09:38:05;;;;;;;3.80;2.23;;;4.20;99.90;;;;;;5033266;28;20179;-64
2022/01/22 09:40:31;;;;;;;6.53;2.30;;;4.30;99.90;;;;;;5031500;28;20235;-64
2022/01/22 09:42:59;;;;;;;3.23;2.33;;;4.30;99.90;;;;;;5051090;28;20172;-67
2022/01/22 09:45:26;;;;;;;3.80;2.20;;;4.30;99.90;;;;;;5057403;28;20180;-64
2022/01/22 09:47:52;;;;;;;7.60;4.03;;;4.40;99.90;;;;;;5059791;28;20160;-63
2022/01/22 09:50:20;;;;;;;2.90;1.77;;;4.30;99.90;;;;;;5055538;28;20264;-63
2022/01/22 09:52:46;;;;;;;2.57;2.10;;;4.30;99.90;;;;;;5056709;28;20630;-64
2022/01/22 09:55:12;;;;;;;3.60;1.57;;;4.30;99.90;;;;;;5059984;28;20205;-65
2022/01/22 09:57:39;;;;;;;3.03;2.23;;;4.30;99.90;;;;;;5059652;28;20199;-64
2022/01/22 10:00:09;;;;;;;1.93;1.60;;;4.40;99.90;;;;;;5059661;28;20621;-68
2022/01/22 10:02:56;;;;;;;3.43;2.23;;;5.10;99.90;;;;;;5059205;28;20172;-63
2022/01/22 10:05:36;;;;;;;3.87;1.90;;;5.90;99.90;;;;;;5039260;28;20183;-64
2022/01/22 10:08:24;;;;;;;3.93;1.63;;;5.00;99.90;;;;;;5038177;28;20181;-64
2022/01/22 10:10:51;;;;;;;2.03;1.70;;;4.70;99.90;;;;;;5029410;28;20237;-64
2022/01/22 10:13:59;;;;;;;2.20;2.00;;;4.80;99.90;;;;;;5035737;28;20177;-65
2022/01/22 10:16:26;;;;;;;2.20;1.43;;;4.60;99.90;;;;;;5019205;28;20291;-65
2022/01/22 10:19:08;;;;;;;3.03;1.57;;;4.60;99.90;;;;;;5019178;28;20205;-63
2022/01/22 10:21:34;;;;;;;2.63;1.90;;;4.60;99.90;;;;;;5021192;28;20322;-65
2022/01/22 10:24:21;;;;;;;3.83;1.90;;;4.50;99.90;;;;;;5034150;28;20711;-64
2022/01/22 10:26:46;;;;;;;2.40;1.60;;;4.50;99.90;;;;;;5037163;28;20242;-64
2022/01/22 10:29:19;;;;;;;4.27;2.13;;;4.50;99.90;;;;;;5033674;28;20484;-63
2022/01/22 10:31:46;;;;;;;2.37;1.80;;;4.50;99.90;;;;;;5033041;28;20185;-64
2022/01/22 10:34:13;;;;;;;3.20;1.20;;;4.40;99.90;;;;;;5029039;28;20697;-65
2022/01/22 10:36:39;;;;;;;2.53;1.90;;;4.40;99.90;;;;;;5025530;28;20685;-63
2022/01/22 10:39:23;;;;;;;3.87;2.40;;;4.30;99.90;;;;;;5033599;28;20180;-64
2022/01/22 10:41:50;;;;;;;2.20;1.33;;;4.40;99.90;;;;;;5037252;28;20336;-64
2022/01/22 10:44:20;;;;;;;1.57;1.20;;;4.40;99.90;;;;;;5030407;28;20180;-64
2022/01/22 10:46:49;;;;;;;1.50;1.40;;;4.50;99.90;;;;;;5039932;28;20573;-64
2022/01/22 10:49:24;;;;;;;3.83;1.60;;;4.60;99.90;;;;;;5043602;28;20154;-64
2022/01/22 10:51:51;;;;;;;4.03;1.73;;;4.70;99.90;;;;;;5037496;28;20188;-63
2022/01/22 10:54:22;;;;;;;2.87;1.47;;;4.90;99.90;;;;;;5037511;28;20172;-64
2022/01/22 10:56:49;;;;;;;6.47;1.50;;;4.90;99.90;;;;;;5036111;28;20177;-64
2022/01/22 10:59:17;;;;;;;2.27;1.73;;;4.90;99.90;;;;;;5043510;28;20177;-63
2022/01/22 11:01:45;;;;;;;4.43;2.20;;;4.90;99.90;;;;;;5055933;28;20252;-63
2022/01/22 11:04:17;;;;;;;3.30;1.53;;;4.80;99.90;;;;;;5055781;28;20164;-63
2022/01/22 11:06:58;;;;;;;4.47;1.60;;;4.80;99.90;;;;;;5045896;28;20202;-63
2022/01/22 11:09:26;;;;;;;2.27;1.40;;;4.80;99.90;;;;;;5036421;28;20203;-64
2022/01/22 11:11:53;;;;;;;2.30;1.30;;;5.00;99.90;;;;;;5036277;28;20160;-64
2022/01/22 11:14:19;;;;;;;5.20;1.47;;;5.00;99.90;;;;;;5033029;28;20628;-64
2022/01/22 11:16:47;;;;;;;4.33;1.73;;;5.00;99.90;;;;;;5058379;28;20173;-64
2022/01/22 11:19:21;;;;;;;7.13;1.90;;;5.00;99.90;;;;;;5060857;28;20217;-65
2022/01/22 11:21:53;;;;;;;2.77;1.73;;;4.90;99.90;;;;;;5061580;28;20204;-64
2022/01/22 11:24:24;;;;;;;5.67;1.60;;;4.90;99.90;;;;;;5059271;28;20163;-64
2022/01/22 11:26:53;;;;;;;1.70;1.50;;;4.90;99.90;;;;;;5042898;28;20256;-63
2022/01/22 11:29:23;;;;;;;3.60;1.77;;;4.80;99.90;;;;;;5035833;28;20600;-63
2022/01/22 11:31:50;;;;;;;4.37;1.90;;;4.80;99.90;;;;;;5032794;28;20203;-63
2022/01/22 11:34:19;;;;;;;2.33;1.50;;;4.90;99.90;;;;;;5035095;28;20174;-64
2022/01/22 11:37:06;;;;;;;2.37;1.47;;;5.10;99.90;;;;;;5035590;28;20236;-64
2022/01/22 11:39:32;;;;;;;4.57;1.53;;;5.10;99.90;;;;;;5035004;28;20590;-63
2022/01/22 11:41:59;;;;;;;1.77;1.57;;;5.30;99.90;;;;;;5035899;28;20635;-64
2022/01/22 11:44:52;;;;;;;3.50;1.97;;;5.20;99.90;;;;;;5037265;28;20604;-65
2022/01/22 11:47:20;;;;;;;1.73;1.30;;;5.20;99.90;;;;;;5031210;28;21468;-64
2022/01/22 11:50:21;;;;;;;2.30;1.30;;;5.10;99.90;;;;;;5054803;28;20214;-63
2022/01/22 11:52:47;;;;;;;1.30;1.20;;;4.90;99.90;;;;;;5051655;28;20194;-64
2022/01/22 11:55:15;;;;;;;3.50;1.77;;;5.00;99.90;;;;;;5055050;28;20613;-64
2022/01/22 11:57:43;;;;;;;5.77;2.37;;;5.10;99.90;;;;;;5054346;28;20242;-63
2022/01/22 12:00:28;;;;;;;5.50;3.10;;;5.00;99.90;;;;;;5054401;28;20593;-64
2022/01/22 12:03:09;;;;;;;5.20;2.80;;;4.80;99.90;;;;;;5034473;28;20264;-63
2022/01/22 12:05:54;;;;;;;3.23;1.80;;;4.90;99.90;;;;;;5032297;28;20177;-62
2022/01/22 12:08:22;;;;;;;5.93;2.57;;;4.80;99.90;;;;;;5034528;28;20601;-64
2022/01/22 12:16:36;;;;;;;2.57;1.93;;;5.00;99.90;;;;;;5034387;28;20179;-64
2022/01/22 12:19:03;;;;;;;4.83;1.83;;;5.10;99.90;;;;;;5034448;28;20630;-65
2022/01/22 12:21:34;;;;;;;2.07;1.83;;;5.10;99.90;;;;;;5034157;28;20203;-63
2022/01/22 12:24:02;;;;;;;3.53;2.10;;;5.30;99.90;;;;;;5034210;28;20180;-64
2022/01/22 12:26:47;;;;;;;2.43;1.63;;;5.30;99.90;;;;;;5034584;28;20176;-66
2022/01/22 12:29:37;;;;;;;3.33;1.73;;;5.30;99.90;;;;;;5034701;28;20196;-66
2022/01/22 12:32:12;;;;;;;5.87;1.70;;;5.40;99.90;;;;;;5049106;28;20199;-64
2022/01/22 12:34:58;;;;;;;4.03;1.87;;;5.30;99.90;;;;;;5054917;28;20174;-65
2022/01/22 12:37:25;;;;;;;3.07;1.80;;;5.20;99.90;;;;;;5054607;28;20226;-64
2022/01/22 12:39:54;;;;;;;3.37;2.23;;;5.00;99.90;;;;;;5056867;28;20549;-63
2022/01/22 12:42:34;;;;;;;4.80;2.40;;;5.20;99.90;;;;;;5057407;28;20167;-64
2022/01/22 12:45:06;;;;;;;4.33;1.90;;;5.20;99.90;;;;;;5058326;28;20242;-65
2022/01/22 12:47:36;;;;;;;2.20;1.53;;;5.30;99.90;;;;;;5053566;28;20194;-63
2022/01/22 12:50:06;;;;;;;2.53;1.87;;;5.20;99.90;;;;;;5058453;28;20159;-68
2022/01/22 12:52:33;;;;;;;4.23;1.83;;;5.10;99.90;;;;;;5053637;28;20187;-66
2022/01/22 12:55:00;;;;;;;2.83;1.30;;;5.20;99.90;;;;;;5059839;28;20164;-67
2022/01/22 12:57:27;;;;;;;2.60;1.73;;;5.30;99.90;;;;;;5060944;28;20579;-66
2022/01/22 13:02:56;;;;;;;3.33;1.97;;;5.20;99.90;;;;;;5059917;28;20214;-65
2022/01/22 13:05:25;;;;;;;3.37;1.57;;;5.40;99.90;;;;;;5054535;28;20164;-64
2022/01/22 13:08:00;;;;;;;4.27;2.00;;;5.10;99.90;;;;;;5054772;28;20214;-64
2022/01/22 13:10:33;;;;;;;2.00;1.83;;;5.20;99.90;;;;;;5053018;28;20256;-64
2022/01/22 13:13:00;;;;;;;2.27;1.80;;;5.30;99.90;;;;;;5052001;28;20236;-65
2022/01/22 13:15:36;;;;;;;7.20;2.03;;;5.20;99.90;;;;;;5053468;28;20206;-64
2022/01/22 13:18:04;;;;;;;1.70;1.30;;;5.20;99.90;;;;;;5048279;28;20183;-65
2022/01/22 13:20:33;;;;;;;6.83;1.97;;;5.20;99.90;;;;;;5085399;28;20257;-64
2022/01/22 13:23:17;;;;;;;2.37;1.63;;;5.20;99.90;;;;;;5053508;28;20253;-64
2022/01/22 13:25:43;;;;;;;6.57;3.20;;;5.10;99.90;;;;;;5053460;28;20156;-64
2022/01/22 13:28:12;;;;;;;3.27;1.90;;;5.00;99.90;;;;;;5053580;28;20290;-64
2022/01/22 13:30:44;;;;;;;5.30;1.80;;;5.00;99.90;;;;;;5047919;28;20263;-65
2022/01/22 13:33:19;;;;;;;6.03;2.30;;;5.00;99.90;;;;;;5054848;28;20159;-64
2022/01/22 13:35:58;;;;;;;1.47;1.37;;;4.80;99.90;;;;;;5053960;28;20290;-64
2022/01/22 13:38:55;;;;;;;3.87;2.17;;;4.80;99.90;;;;;;5053530;28;20256;-64
2022/01/22 13:49:39;;;;;;;2.73;2.10;;;4.90;99.90;;;;;;5036146;28;20246;-64
2022/01/22 13:52:18;;;;;;;2.20;1.90;;;4.90;99.90;;;;;;5031882;28;20239;-63
2022/01/22 13:54:49;;;;;;;2.30;1.70;;;4.90;99.90;;;;;;5030717;28;20242;-64
2022/01/22 13:57:17;;;;;;;4.93;2.97;;;5.00;99.90;;;;;;5053198;28;20181;-64
2022/01/22 13:59:45;;;;;;;3.30;2.50;;;5.00;99.90;;;;;;5052967;28;20652;-64
2022/01/22 14:04:55;;;;;;;3.53;2.07;;;4.90;99.90;;;;;;5040899;28;20193;-62
2022/01/22 14:07:24;;;;;;;5.43;2.50;;;4.90;99.90;;;;;;5032486;28;20212;-63
2022/01/22 14:09:54;;;;;;;3.23;2.30;;;4.90;99.90;;;;;;5033449;28;20195;-62
2022/01/22 14:12:20;;;;;;;6.63;2.00;;;4.90;99.90;;;;;;5032098;28;20260;-64
2022/01/22 14:15:05;;;;;;;4.70;2.33;;;4.80;99.90;;;;;;5032932;28;20199;-63
2022/01/22 14:17:38;;;;;;;4.57;2.20;;;4.80;99.90;;;;;;5039658;28;20219;-65
2022/01/22 14:20:11;;;;;;;4.43;2.13;;;4.70;99.90;;;;;;5052546;28;20511;-64
2022/01/22 14:23:08;;;;;;;4.40;2.53;;;4.60;99.90;;;;;;5053093;28;20227;-63
2022/01/22 14:25:36;;;;;;;5.17;2.20;;;4.60;99.90;;;;;;5031978;28;20189;-65
2022/01/22 14:28:05;;;;;;;6.83;1.90;;;4.50;99.90;;;;;;5033467;28;20270;-63
2022/01/22 14:30:36;;;;;;;4.93;2.57;;;4.50;99.90;;;;;;5035999;28;20194;-62
2022/01/22 14:33:03;;;;;;;3.80;2.37;;;4.50;99.90;;;;;;5036752;28;20635;-63
2022/01/22 14:35:29;;;;;;;4.37;2.40;;;4.50;99.90;;;;;;5062402;28;20640;-63
2022/01/22 14:37:57;;;;;;;3.33;2.10;;;4.60;99.90;;;;;;5042621;28;20223;-62
2022/01/22 14:45:59;;;;;;;2.90;2.27;;;4.60;99.90;;;;;;5032767;28;20510;-63
2022/01/22 14:48:26;;;;;;;4.33;2.90;;;4.60;99.90;;;;;;5033383;28;20187;-66
2022/01/22 14:50:52;;;;;;;3.93;2.30;;;4.50;99.90;;;;;;5066912;28;20602;-65
2022/01/22 14:53:19;;;;;;;3.43;2.00;;;4.50;99.90;;;;;;5042786;28;20221;-64